Time;durP1;ratioP1;P1;durP2;ratioP2;P2;SDS_P1;SDS_P2;PMS_P1;PMS_P2;Temp;Humidity;BMP_temperature;BMP_pressure;BME280_temperature;BME280_humidity;BME280_pressure;Samples;Min_cycle;Max_cycle;Signal;HPM_P1;HPM_P2
2023/09/30 00:01:44;;;;;;;1999.90;999.90;;;17.30;99.90;;;;;;5053680;28;20103;-78
2023/09/30 00:04:10;;;;;;;1999.90;999.90;;;17.20;99.90;;;;;;5052287;28;20021;-76
2023/09/30 00:06:36;;;;;;;1999.90;999.90;;;17.20;99.90;;;;;;5047253;28;20037;-77
2023/09/30 00:09:02;;;;;;;1999.90;999.90;;;17.10;99.90;;;;;;5052125;28;20100;-75
2023/09/30 00:11:28;;;;;;;1999.90;999.90;;;17.10;99.90;;;;;;5052477;28;20115;-78
2023/09/30 00:13:53;;;;;;;1999.90;999.90;;;17.10;99.90;;;;;;5053547;28;20029;-78
2023/09/30 00:16:19;;;;;;;1999.90;999.90;;;17.10;99.90;;;;;;5053147;28;20396;-78
2023/09/30 00:18:45;;;;;;;1999.90;999.90;;;17.00;99.90;;;;;;5051362;28;20021;-76
2023/09/30 00:21:11;;;;;;;1999.90;999.90;;;17.00;99.90;;;;;;5053859;28;20029;-75
2023/09/30 00:23:37;;;;;;;1999.90;999.90;;;17.00;99.90;;;;;;5053624;28;20024;-78
2023/09/30 00:26:02;;;;;;;1999.90;999.90;;;17.00;99.90;;;;;;5053368;28;20049;-78
2023/09/30 00:28:28;;;;;;;1999.90;999.90;;;16.90;99.90;;;;;;5053699;28;20021;-78
2023/09/30 00:30:54;;;;;;;1999.90;999.90;;;16.90;99.90;;;;;;5053296;28;20075;-78
2023/09/30 00:33:19;;;;;;;1999.90;999.90;;;16.90;99.90;;;;;;5053316;28;20035;-76
2023/09/30 00:35:46;;;;;;;1999.90;999.90;;;16.90;99.90;;;;;;5053328;28;20032;-75
2023/09/30 00:38:11;;;;;;;1999.90;999.90;;;16.90;99.90;;;;;;5051845;28;20052;-77
2023/09/30 00:40:37;;;;;;;1999.90;999.90;;;16.90;99.90;;;;;;5053193;28;20029;-77
2023/09/30 00:43:03;;;;;;;1999.90;999.90;;;16.80;99.90;;;;;;5051703;28;20025;-78
2023/09/30 00:45:30;;;;;;;1999.90;999.90;;;16.80;99.90;;;;;;5053266;28;20028;-78
2023/09/30 00:47:56;;;;;;;1999.90;999.90;;;16.70;99.90;;;;;;5053213;28;20017;-75
2023/09/30 00:50:22;;;;;;;1999.90;999.90;;;16.70;99.90;;;;;;5053033;28;20098;-78
2023/09/30 00:52:49;;;;;;;1999.90;999.90;;;16.70;99.90;;;;;;5053137;28;20519;-76
2023/09/30 00:55:16;;;;;;;1999.90;999.90;;;16.70;99.90;;;;;;5051557;28;20036;-78
2023/09/30 00:57:43;;;;;;;1999.90;999.90;;;16.70;99.90;;;;;;5052874;28;20021;-75
2023/09/30 01:00:12;;;;;;;1999.90;999.90;;;16.60;99.90;;;;;;5044796;28;20030;-75
2023/09/30 01:02:40;;;;;;;1999.90;999.90;;;16.50;99.90;;;;;;5032356;28;20025;-78
2023/09/30 01:05:07;;;;;;;1999.90;999.90;;;16.50;99.90;;;;;;5038668;28;20025;-78
2023/09/30 01:07:33;;;;;;;1999.90;999.90;;;16.50;99.90;;;;;;5041440;28;20033;-75
2023/09/30 01:09:59;;;;;;;1999.90;999.90;;;16.40;99.90;;;;;;5035158;28;20032;-78
2023/09/30 01:12:25;;;;;;;1999.90;999.90;;;16.40;99.90;;;;;;5048350;28;20410;-75
2023/09/30 01:14:50;;;;;;;1999.90;999.90;;;16.40;99.90;;;;;;5051340;28;20082;-75
2023/09/30 01:17:16;;;;;;;1999.90;999.90;;;16.30;99.90;;;;;;5052598;28;20037;-75
2023/09/30 01:19:45;;;;;;;1999.90;999.90;;;16.30;99.90;;;;;;5051240;28;20025;-78
2023/09/30 01:22:11;;;;;;;1999.90;999.90;;;16.30;99.90;;;;;;5052774;28;20033;-78
2023/09/30 01:24:40;;;;;;;1999.90;999.90;;;16.30;99.90;;;;;;5052562;28;20049;-78
2023/09/30 01:27:06;;;;;;;1999.90;999.90;;;16.30;99.90;;;;;;5052555;28;20055;-75
2023/09/30 01:29:32;;;;;;;1999.90;999.90;;;16.20;99.90;;;;;;5051219;28;20492;-78
2023/09/30 01:31:58;;;;;;;1999.90;999.90;;;16.20;99.90;;;;;;5052671;28;20480;-78
2023/09/30 01:34:23;;;;;;;1999.90;999.90;;;16.20;99.90;;;;;;5052912;28;20480;-78
2023/09/30 01:36:49;;;;;;;1999.90;999.90;;;16.10;99.90;;;;;;5052657;28;20033;-78
2023/09/30 01:39:14;;;;;;;1999.90;999.90;;;16.10;99.90;;;;;;5052755;28;20485;-75
2023/09/30 01:41:40;;;;;;;1999.90;999.90;;;16.10;99.90;;;;;;5052445;28;20029;-78
2023/09/30 01:44:07;;;;;;;1999.90;999.90;;;16.00;99.90;;;;;;5052650;28;20159;-78
2023/09/30 01:46:33;;;;;;;1999.90;999.90;;;16.00;99.90;;;;;;5052254;28;20029;-78
2023/09/30 01:48:58;;;;;;;1999.90;999.90;;;16.00;99.90;;;;;;5052096;28;20028;-78
2023/09/30 01:51:24;;;;;;;1999.90;999.90;;;15.90;99.90;;;;;;5052525;28;20438;-75
2023/09/30 01:53:50;;;;;;;1999.90;999.90;;;15.90;99.90;;;;;;5052472;28;20024;-75
2023/09/30 01:56:16;;;;;;;1999.90;999.90;;;15.90;99.90;;;;;;5052316;28;20036;-77
2023/09/30 01:58:41;;;;;;;1999.90;999.90;;;15.90;99.90;;;;;;5050950;28;20033;-78
2023/09/30 02:01:08;;;;;;;1999.90;999.90;;;16.00;99.90;;;;;;5035997;28;20571;-77
2023/09/30 02:03:33;;;;;;;1999.90;999.90;;;16.00;99.90;;;;;;5031131;28;20103;-78
2023/09/30 02:05:59;;;;;;;1999.90;999.90;;;16.00;99.90;;;;;;5044239;28;20491;-78
2023/09/30 02:08:24;;;;;;;1999.90;999.90;;;16.10;99.90;;;;;;5043456;28;20026;-78
2023/09/30 02:10:53;;;;;;;1999.90;999.90;;;16.10;99.90;;;;;;5034591;28;20083;-78
2023/09/30 02:13:19;;;;;;;1999.90;999.90;;;16.20;99.90;;;;;;5052574;28;20029;-78
2023/09/30 02:15:45;;;;;;;1999.90;999.90;;;16.20;99.90;;;;;;5054638;28;20025;-78
2023/09/30 02:18:11;;;;;;;1999.90;999.90;;;16.30;99.90;;;;;;5056031;28;20086;-75
2023/09/30 02:20:39;;;;;;;1999.90;999.90;;;16.30;99.90;;;;;;5056097;28;20040;-78
2023/09/30 02:23:12;;;;;;;1999.90;999.90;;;16.30;99.90;;;;;;5055633;28;20499;-75
2023/09/30 02:25:38;;;;;;;1999.90;999.90;;;16.40;99.90;;;;;;5055708;28;20041;-78
2023/09/30 02:28:05;;;;;;;1999.90;999.90;;;16.40;99.90;;;;;;5055897;28;20033;-75
2023/09/30 02:30:31;;;;;;;1999.90;999.90;;;16.50;99.90;;;;;;5055647;28;20025;-76
2023/09/30 02:32:57;;;;;;;1999.90;999.90;;;16.40;99.90;;;;;;5055670;28;20388;-78
2023/09/30 02:35:23;;;;;;;1999.90;999.90;;;16.40;99.90;;;;;;5055593;28;20025;-75
2023/09/30 02:37:50;;;;;;;1999.90;999.90;;;16.40;99.90;;;;;;5055588;28;20122;-78
2023/09/30 02:40:17;;;;;;;1999.90;999.90;;;16.50;99.90;;;;;;5055875;28;20024;-77
2023/09/30 02:42:42;;;;;;;1999.90;999.90;;;16.50;99.90;;;;;;5054255;28;20175;-75
2023/09/30 02:45:09;;;;;;;1999.90;999.90;;;16.50;99.90;;;;;;5055320;28;20544;-77
2023/09/30 02:47:35;;;;;;;1999.90;999.90;;;16.50;99.90;;;;;;5055253;28;20028;-75
2023/09/30 02:50:01;;;;;;;1999.90;999.90;;;16.50;99.90;;;;;;5054019;28;20021;-78
2023/09/30 02:52:28;;;;;;;1999.90;999.90;;;16.60;99.90;;;;;;5055444;28;20036;-78
2023/09/30 02:54:54;;;;;;;1999.90;999.90;;;16.60;99.90;;;;;;5055293;28;20066;-75
2023/09/30 02:57:20;;;;;;;1999.90;999.90;;;16.60;99.90;;;;;;5055072;28;20054;-75
2023/09/30 02:59:47;;;;;;;1999.90;999.90;;;16.60;99.90;;;;;;5051394;28;20026;-78
2023/09/30 03:02:13;;;;;;;1999.90;999.90;;;16.60;99.90;;;;;;5035153;28;20057;-78
2023/09/30 03:04:39;;;;;;;1999.90;999.90;;;16.60;99.90;;;;;;5039243;28;20071;-78
2023/09/30 03:07:05;;;;;;;1999.90;999.90;;;16.60;99.90;;;;;;5046173;28;20029;-78
2023/09/30 03:09:31;;;;;;;1999.90;999.90;;;16.60;99.90;;;;;;5041173;28;20022;-75
2023/09/30 03:11:59;;;;;;;1999.90;999.90;;;16.70;99.90;;;;;;5046722;28;20025;-75
2023/09/30 03:14:25;;;;;;;1999.90;999.90;;;16.80;99.90;;;;;;5053517;28;20020;-78
2023/09/30 03:16:50;;;;;;;1999.90;999.90;;;16.80;99.90;;;;;;5053571;28;20120;-76
2023/09/30 03:19:17;;;;;;;1999.90;999.90;;;16.80;99.90;;;;;;5054236;28;20029;-75
2023/09/30 03:21:43;;;;;;;1999.90;999.90;;;16.80;99.90;;;;;;5054936;28;20025;-75
2023/09/30 03:24:09;;;;;;;1999.90;999.90;;;16.80;99.90;;;;;;5054590;28;20051;-75
2023/09/30 03:26:35;;;;;;;1999.90;999.90;;;16.70;99.90;;;;;;5053945;28;20029;-78
2023/09/30 03:29:01;;;;;;;1999.90;999.90;;;16.70;99.90;;;;;;5054635;28;20059;-77
2023/09/30 03:31:26;;;;;;;1999.90;999.90;;;16.80;99.90;;;;;;5054859;28;20467;-77
2023/09/30 03:33:53;;;;;;;1999.90;999.90;;;16.70;99.90;;;;;;5053292;28;20047;-76
2023/09/30 03:36:24;;;;;;;1999.90;999.90;;;16.80;99.90;;;;;;5054516;28;20025;-76
2023/09/30 03:38:54;;;;;;;1999.90;999.90;;;16.80;99.90;;;;;;5052902;28;20048;-78
2023/09/30 03:41:20;;;;;;;1999.90;999.90;;;16.80;99.90;;;;;;5054535;28;20025;-78
2023/09/30 03:43:45;;;;;;;1999.90;999.90;;;16.70;99.90;;;;;;5054411;28;20388;-78
2023/09/30 03:46:12;;;;;;;1999.90;999.90;;;16.80;99.90;;;;;;5054661;28;20082;-78
2023/09/30 03:48:39;;;;;;;1999.90;999.90;;;16.70;99.90;;;;;;5054258;28;20537;-75
2023/09/30 03:51:15;;;;;;;1999.90;999.90;;;16.60;99.90;;;;;;5054065;28;20017;-76
2023/09/30 03:53:44;;;;;;;1999.90;999.90;;;16.60;99.90;;;;;;5054377;28;20029;-78
2023/09/30 03:56:11;;;;;;;1999.90;999.90;;;16.50;99.90;;;;;;5054031;28;20017;-78
2023/09/30 03:58:38;;;;;;;1999.90;999.90;;;16.40;99.90;;;;;;5052135;28;20542;-78
2023/09/30 04:01:04;;;;;;;1999.90;999.90;;;16.40;99.90;;;;;;5039445;28;20067;-75
2023/09/30 04:03:32;;;;;;;1999.90;999.90;;;16.30;99.90;;;;;;5034090;28;20381;-75
2023/09/30 04:05:58;;;;;;;1999.90;999.90;;;16.30;99.90;;;;;;5042550;28;20022;-78
2023/09/30 04:08:24;;;;;;;1999.90;999.90;;;16.20;99.90;;;;;;5044607;28;20049;-78
2023/09/30 04:10:49;;;;;;;1999.90;999.90;;;16.20;99.90;;;;;;5036577;28;20022;-78
2023/09/30 04:13:15;;;;;;;1999.90;999.90;;;16.10;99.90;;;;;;5052177;28;20052;-76
2023/09/30 04:15:41;;;;;;;1999.90;999.90;;;16.10;99.90;;;;;;5053904;28;20049;-75
2023/09/30 04:18:06;;;;;;;1999.90;999.90;;;16.10;99.90;;;;;;5054029;28;20028;-75
2023/09/30 04:20:32;;;;;;;1999.90;999.90;;;16.10;99.90;;;;;;5041502;28;20108;-78
2023/09/30 04:22:58;;;;;;;1999.90;999.90;;;16.10;99.90;;;;;;5033316;28;20117;-76
2023/09/30 04:25:24;;;;;;;1999.90;999.90;;;16.20;99.90;;;;;;5032074;28;20042;-77
2023/09/30 04:27:50;;;;;;;1999.90;999.90;;;16.20;99.90;;;;;;5032291;28;20025;-76
2023/09/30 04:30:17;;;;;;;1999.90;999.90;;;16.20;99.90;;;;;;5032248;28;20067;-75
2023/09/30 04:32:43;;;;;;;1999.90;999.90;;;16.30;99.90;;;;;;5033653;28;20036;-78
2023/09/30 04:35:11;;;;;;;1999.90;999.90;;;16.30;99.90;;;;;;5033484;28;20052;-78
2023/09/30 04:37:37;;;;;;;1999.90;999.90;;;16.40;99.90;;;;;;5034767;28;20033;-76
2023/09/30 04:40:19;;;;;;;1999.90;999.90;;;16.40;99.90;;;;;;5053531;28;20055;-76
2023/09/30 04:42:46;;;;;;;1999.90;999.90;;;16.40;99.90;;;;;;5051927;28;20025;-76
2023/09/30 04:45:13;;;;;;;1999.90;999.90;;;16.50;99.90;;;;;;5053199;28;20114;-78
2023/09/30 04:47:39;;;;;;;1999.90;999.90;;;16.50;99.90;;;;;;5051825;28;20059;-75
2023/09/30 04:50:08;;;;;;;1999.90;999.90;;;16.50;99.90;;;;;;5053236;28;20036;-78
2023/09/30 04:52:34;;;;;;;1999.90;999.90;;;16.60;99.90;;;;;;5053076;28;20107;-75
2023/09/30 04:55:00;;;;;;;1999.90;999.90;;;16.60;99.90;;;;;;5051805;28;20075;-76
2023/09/30 04:57:26;;;;;;;1999.90;999.90;;;16.60;99.90;;;;;;5053013;28;20496;-75
2023/09/30 04:59:52;;;;;;;1999.90;999.90;;;16.60;99.90;;;;;;5048446;28;20106;-77
2023/09/30 05:02:18;;;;;;;1999.90;999.90;;;16.60;99.90;;;;;;5033043;28;20034;-75
2023/09/30 05:04:43;;;;;;;1999.90;999.90;;;16.60;99.90;;;;;;5036456;28;20017;-76
2023/09/30 05:07:09;;;;;;;1999.90;999.90;;;16.60;99.90;;;;;;5043491;28;20501;-76
2023/09/30 05:09:36;;;;;;;1999.90;999.90;;;16.60;99.90;;;;;;5039189;28;20026;-78
2023/09/30 05:12:01;;;;;;;1999.90;999.90;;;16.60;99.90;;;;;;5043919;28;20037;-78
2023/09/30 05:14:28;;;;;;;1999.90;999.90;;;16.60;99.90;;;;;;5052850;28;20039;-76
2023/09/30 05:16:56;;;;;;;1999.90;999.90;;;16.60;99.90;;;;;;5051351;28;20028;-76
2023/09/30 05:19:21;;;;;;;1999.90;999.90;;;16.60;99.90;;;;;;5052717;28;20025;-75
2023/09/30 05:21:48;;;;;;;1999.90;999.90;;;16.60;99.90;;;;;;5052518;28;20530;-76
2023/09/30 05:24:15;;;;;;;1999.90;999.90;;;16.60;99.90;;;;;;5052499;28;20422;-78
2023/09/30 05:26:40;;;;;;;1999.90;999.90;;;16.60;99.90;;;;;;5044317;28;20043;-78
2023/09/30 05:29:07;;;;;;;1999.90;999.90;;;16.70;99.90;;;;;;5043224;28;20025;-78
2023/09/30 05:31:32;;;;;;;1999.90;999.90;;;16.70;99.90;;;;;;5052915;28;20477;-76
2023/09/30 05:33:58;;;;;;;1999.90;999.90;;;16.60;99.90;;;;;;5035296;28;20021;-76
2023/09/30 05:36:24;;;;;;;1999.90;999.90;;;16.60;99.90;;;;;;5036830;28;20032;-77
2023/09/30 05:38:49;;;;;;;1999.90;999.90;;;16.60;99.90;;;;;;5052414;28;20029;-78
2023/09/30 05:41:15;;;;;;;1999.90;999.90;;;16.60;99.90;;;;;;5051254;28;20033;-78
2023/09/30 05:43:43;;;;;;;1999.90;999.90;;;16.60;99.90;;;;;;5051126;28;20079;-75
2023/09/30 05:46:09;;;;;;;1999.90;999.90;;;16.60;99.90;;;;;;5052764;28;20430;-75
2023/09/30 05:48:34;;;;;;;1999.90;999.90;;;16.60;99.90;;;;;;5053271;28;20032;-78
2023/09/30 05:51:00;;;;;;;1999.90;999.90;;;16.60;99.90;;;;;;5056281;28;20056;-78
2023/09/30 05:53:27;;;;;;;1999.90;999.90;;;16.50;99.90;;;;;;5056586;28;20376;-76
2023/09/30 05:55:53;;;;;;;1999.90;999.90;;;16.60;99.90;;;;;;5056462;28;20071;-76
2023/09/30 05:58:19;;;;;;;1999.90;999.90;;;16.60;99.90;;;;;;5056123;28;20025;-76
2023/09/30 06:00:44;;;;;;;1999.90;999.90;;;16.60;99.90;;;;;;5044355;28;20413;-76
2023/09/30 06:03:13;;;;;;;1999.90;999.90;;;16.70;99.90;;;;;;5034899;28;20492;-75
2023/09/30 06:05:40;;;;;;;1999.90;999.90;;;16.70;99.90;;;;;;5047652;28;20484;-76
2023/09/30 06:08:08;;;;;;;1999.90;999.90;;;16.70;99.90;;;;;;5048081;28;20021;-78
2023/09/30 06:10:35;;;;;;;1999.90;999.90;;;16.70;99.90;;;;;;5035101;28;20144;-76
2023/09/30 06:13:02;;;;;;;1999.90;999.90;;;16.70;99.90;;;;;;5056167;28;20017;-76
2023/09/30 06:15:28;;;;;;;1999.90;999.90;;;16.70;99.90;;;;;;5056136;28;20033;-75
2023/09/30 06:17:57;;;;;;;1999.90;999.90;;;16.70;99.90;;;;;;5054703;28;20036;-78
2023/09/30 06:20:26;;;;;;;1999.90;999.90;;;16.80;99.90;;;;;;5055984;28;20029;-78
2023/09/30 06:22:53;;;;;;;1999.90;999.90;;;16.80;99.90;;;;;;5055480;28;20032;-78
2023/09/30 06:25:19;;;;;;;1999.90;999.90;;;16.80;99.90;;;;;;5055889;28;20124;-76
2023/09/30 06:27:45;;;;;;;1999.90;999.90;;;16.80;99.90;;;;;;5056064;28;20100;-78
2023/09/30 06:30:13;;;;;;;1999.90;999.90;;;16.80;99.90;;;;;;5055768;28;20070;-77
2023/09/30 06:32:40;;;;;;;1999.90;999.90;;;16.90;99.90;;;;;;5055448;28;20017;-75
2023/09/30 06:35:06;;;;;;;1999.90;999.90;;;16.90;99.90;;;;;;5055624;28;20119;-78
2023/09/30 06:37:34;;;;;;;1999.90;999.90;;;16.90;99.90;;;;;;5056078;28;20103;-76
2023/09/30 06:40:03;;;;;;;1999.90;999.90;;;16.90;99.90;;;;;;5054365;28;20036;-76
2023/09/30 06:42:29;;;;;;;1999.90;999.90;;;16.90;99.90;;;;;;5055621;28;20495;-78
2023/09/30 06:44:55;;;;;;;1999.90;999.90;;;17.00;99.90;;;;;;5055395;28;20035;-78
2023/09/30 06:47:20;;;;;;;1999.90;999.90;;;17.00;99.90;;;;;;5053735;28;20072;-78
2023/09/30 06:49:47;;;;;;;1999.90;999.90;;;17.00;99.90;;;;;;5055187;28;20583;-76
2023/09/30 06:52:13;;;;;;;1999.90;999.90;;;17.10;99.90;;;;;;5054141;28;20040;-76
2023/09/30 06:54:38;;;;;;;1999.90;999.90;;;17.10;99.90;;;;;;5055549;28;20036;-76
2023/09/30 06:57:04;;;;;;;1999.90;999.90;;;17.10;99.90;;;;;;5055130;28;20033;-78
2023/09/30 06:59:31;;;;;;;1999.90;999.90;;;17.10;99.90;;;;;;5055070;28;20044;-76
2023/09/30 07:01:57;;;;;;;1999.90;999.90;;;17.20;99.90;;;;;;5052825;28;20098;-76
2023/09/30 07:04:23;;;;;;;1999.90;999.90;;;17.30;99.90;;;;;;5036727;28;20088;-76
2023/09/30 07:06:48;;;;;;;1999.90;999.90;;;17.30;99.90;;;;;;5050677;28;20028;-76
2023/09/30 07:09:14;;;;;;;1999.90;999.90;;;17.30;99.90;;;;;;5044414;28;20166;-76
2023/09/30 07:11:39;;;;;;;1999.90;999.90;;;17.30;99.90;;;;;;5044506;28;20017;-78
2023/09/30 07:14:05;;;;;;;1999.90;999.90;;;17.40;99.90;;;;;;5054981;28;20029;-78
2023/09/30 07:16:31;;;;;;;1999.90;999.90;;;17.40;99.90;;;;;;5055128;28;20037;-75
2023/09/30 07:18:57;;;;;;;1999.90;999.90;;;17.40;99.90;;;;;;5054971;28;20104;-75
2023/09/30 07:21:22;;;;;;;1999.90;999.90;;;17.50;99.90;;;;;;5054674;28;20388;-78
2023/09/30 07:23:48;;;;;;;1999.90;999.90;;;17.50;99.90;;;;;;5053464;28;20021;-75
2023/09/30 07:26:14;;;;;;;1999.90;999.90;;;17.60;99.90;;;;;;5054612;28;20051;-78
2023/09/30 07:28:40;;;;;;;1999.90;999.90;;;17.60;99.90;;;;;;5054827;28;20021;-76
2023/09/30 07:31:06;;;;;;;1999.90;999.90;;;17.80;99.90;;;;;;5054404;28;20028;-75
2023/09/30 07:33:32;;;;;;;1999.90;999.90;;;17.80;99.90;;;;;;5054452;28;20511;-78
2023/09/30 07:35:57;;;;;;;1999.90;999.90;;;17.90;99.90;;;;;;5054750;28;20033;-78
2023/09/30 07:38:23;;;;;;;1999.90;999.90;;;17.90;99.90;;;;;;5054514;28;20447;-78
2023/09/30 07:40:49;;;;;;;1999.90;999.90;;;18.10;99.90;;;;;;5054452;28;20020;-76
2023/09/30 07:43:14;;;;;;;1999.90;999.90;;;18.20;99.90;;;;;;5054255;28;20025;-76
2023/09/30 07:45:40;;;;;;;1999.90;999.90;;;18.30;99.90;;;;;;5054260;28;20025;-76
2023/09/30 07:48:09;;;;;;;1999.90;999.90;;;18.40;99.90;;;;;;5054478;28;20117;-78
2023/09/30 07:50:35;;;;;;;1999.90;999.90;;;18.40;99.90;;;;;;5054173;28;20479;-78
2023/09/30 07:53:01;;;;;;;1999.90;999.90;;;18.40;99.90;;;;;;5054190;28;20031;-78
2023/09/30 07:55:26;;;;;;;1999.90;999.90;;;18.50;99.90;;;;;;5054200;28;20029;-76
2023/09/30 07:57:52;;;;;;;1999.90;999.90;;;18.50;99.90;;;;;;5052628;28;20041;-75
2023/09/30 08:00:21;;;;;;;1999.90;999.90;;;18.60;99.90;;;;;;5052305;28;20025;-75
2023/09/30 08:02:47;;;;;;;1999.90;999.90;;;18.70;99.90;;;;;;5047483;28;20553;-78
2023/09/30 08:05:12;;;;;;;1999.90;999.90;;;18.80;99.90;;;;;;5053524;28;20028;-78
2023/09/30 08:07:38;;;;;;;1999.90;999.90;;;18.90;99.90;;;;;;5045917;28;20087;-76
2023/09/30 08:10:05;;;;;;;1999.90;999.90;;;19.10;99.90;;;;;;5036496;28;20021;-76
2023/09/30 08:12:30;;;;;;;1999.90;999.90;;;19.20;99.90;;;;;;5050101;28;20017;-78
2023/09/30 08:14:56;;;;;;;1999.90;999.90;;;19.30;99.90;;;;;;5053474;28;20083;-78
2023/09/30 08:17:21;;;;;;;1999.90;999.90;;;19.50;99.90;;;;;;5053786;28;20025;-78
2023/09/30 08:19:47;;;;;;;1999.90;999.90;;;19.70;99.90;;;;;;5050376;28;20389;-76
2023/09/30 08:22:14;;;;;;;1999.90;999.90;;;20.20;99.90;;;;;;5041268;28;20025;-76
2023/09/30 08:24:40;;;;;;;1999.90;999.90;;;21.60;99.90;;;;;;5053380;28;20047;-78
2023/09/30 08:27:06;;;;;;;1999.90;999.90;;;22.40;99.90;;;;;;5052115;28;20033;-78
2023/09/30 08:29:38;;;;;;;1999.90;999.90;;;21.80;99.90;;;;;;5053300;28;20495;-78
2023/09/30 08:32:04;;;;;;;1999.90;999.90;;;21.70;99.90;;;;;;5053511;28;20056;-78
2023/09/30 08:34:30;;;;;;;1999.90;999.90;;;21.80;99.90;;;;;;5053606;28;20049;-76
2023/09/30 08:36:56;;;;;;;1999.90;999.90;;;21.60;99.90;;;;;;5053687;28;20060;-78
2023/09/30 08:39:23;;;;;;;1999.90;999.90;;;21.60;99.90;;;;;;5053456;28;20025;-79
2023/09/30 08:41:50;;;;;;;1999.90;999.90;;;21.70;99.90;;;;;;5053264;28;20376;-78
2023/09/30 08:44:16;;;;;;;1999.90;999.90;;;21.50;99.90;;;;;;5052066;28;20024;-78
2023/09/30 08:46:41;;;;;;;1999.90;999.90;;;21.40;99.90;;;;;;5052966;28;20036;-75
2023/09/30 08:49:08;;;;;;;1999.90;999.90;;;21.90;99.90;;;;;;5053142;28;20025;-76
2023/09/30 08:51:35;;;;;;;1999.90;999.90;;;22.40;99.90;;;;;;5052864;28;20070;-78
2023/09/30 08:54:03;;;;;;;1999.90;999.90;;;23.40;99.90;;;;;;5053304;28;20108;-76
2023/09/30 08:56:32;;;;;;;1999.90;999.90;;;23.10;99.90;;;;;;5048168;28;20029;-78
2023/09/30 08:58:59;;;;;;;1999.90;999.90;;;22.80;99.90;;;;;;5031697;28;20120;-76
2023/09/30 09:01:27;;;;;;;1999.90;999.90;;;22.40;99.90;;;;;;5050433;28;20104;-76
2023/09/30 09:03:54;;;;;;;1999.90;999.90;;;22.20;99.90;;;;;;5052943;28;20025;-76
2023/09/30 09:06:21;;;;;;;1999.90;999.90;;;22.00;99.90;;;;;;5047877;28;20035;-78
2023/09/30 09:08:47;;;;;;;1999.90;999.90;;;22.20;99.90;;;;;;5041795;28;20476;-76
2023/09/30 09:11:14;;;;;;;1999.90;999.90;;;22.40;99.90;;;;;;5037337;28;20025;-79
2023/09/30 09:14:00;;;;;;;1999.90;999.90;;;22.20;99.90;;;;;;5052806;28;20565;-78
2023/09/30 09:16:26;;;;;;;1999.90;999.90;;;21.90;99.90;;;;;;5052714;28;20109;-78
2023/09/30 09:18:52;;;;;;;1999.90;999.90;;;21.80;99.90;;;;;;5051347;28;20115;-78
2023/09/30 09:21:26;;;;;;;1999.90;999.90;;;22.20;99.90;;;;;;5052732;28;20025;-78
2023/09/30 09:23:53;;;;;;;1999.90;999.90;;;22.90;99.90;;;;;;5052113;28;20025;-78
2023/09/30 09:26:31;;;;;;;1999.90;999.90;;;23.30;99.90;;;;;;5052421;28;20107;-76
2023/09/30 09:29:03;;;;;;;1999.90;999.90;;;23.50;99.90;;;;;;5051241;28;20021;-76
2023/09/30 09:31:36;;;;;;;1999.90;999.90;;;23.40;99.90;;;;;;5051348;28;20091;-79
2023/09/30 09:34:03;;;;;;;1999.90;999.90;;;23.40;99.90;;;;;;5052888;28;20139;-79
2023/09/30 09:36:47;;;;;;;1999.90;999.90;;;23.50;99.90;;;;;;5052583;28;20503;-79
2023/09/30 09:39:13;;;;;;;1999.90;999.90;;;23.60;99.90;;;;;;5052114;28;20473;-76
2023/09/30 09:41:53;;;;;;;1999.90;999.90;;;23.60;99.90;;;;;;5052654;28;20104;-76
2023/09/30 09:44:23;;;;;;;1999.90;999.90;;;23.10;99.90;;;;;;5052605;28;20021;-79
2023/09/30 09:46:52;;;;;;;1999.90;999.90;;;23.10;99.90;;;;;;5052452;28;20422;-78
2023/09/30 09:49:18;;;;;;;1999.90;999.90;;;23.00;99.90;;;;;;5052305;28;20013;-76
2023/09/30 09:51:46;;;;;;;1999.90;999.90;;;22.90;99.90;;;;;;5052257;28;20063;-76
2023/09/30 09:54:12;;;;;;;1999.90;999.90;;;22.90;99.90;;;;;;5051780;28;20105;-76
2023/09/30 09:56:39;;;;;;;1999.90;999.90;;;22.90;99.90;;;;;;5047638;28;20509;-77
2023/09/30 09:59:06;;;;;;;1999.90;999.90;;;22.80;99.90;;;;;;5032654;28;20447;-77
2023/09/30 10:01:34;;;;;;;1999.90;999.90;;;23.00;99.90;;;;;;5030885;28;20423;-77
2023/09/30 10:04:01;;;;;;;1999.90;999.90;;;22.80;99.90;;;;;;5032271;28;20075;-77
2023/09/30 10:06:28;;;;;;;1999.90;999.90;;;22.80;99.90;;;;;;5047523;28;20025;-77
2023/09/30 10:08:57;;;;;;;1999.90;999.90;;;23.00;99.90;;;;;;5040750;28;20032;-77
2023/09/30 10:11:23;;;;;;;1999.90;999.90;;;23.10;99.90;;;;;;5039418;28;20021;-76
2023/09/30 10:13:56;;;;;;;1999.90;999.90;;;23.20;99.90;;;;;;5052223;28;20036;-78
2023/09/30 10:16:42;;;;;;;1999.90;999.90;;;23.50;99.90;;;;;;5052212;28;20033;-78
2023/09/30 10:19:24;;;;;;;1999.90;999.90;;;23.70;99.90;;;;;;5036760;28;20080;-76
2023/09/30 10:22:21;;;;;;;1999.90;999.90;;;23.70;99.90;;;;;;5052183;28;20079;-76
2023/09/30 10:24:49;;;;;;;1999.90;999.90;;;23.70;99.90;;;;;;5039749;28;20179;-78
2023/09/30 10:27:33;;;;;;;1999.90;999.90;;;23.40;99.90;;;;;;5052076;28;20013;-78
2023/09/30 10:29:59;;;;;;;1999.90;999.90;;;23.50;99.90;;;;;;5052174;28;20032;-76
2023/09/30 10:32:48;;;;;;;1999.90;999.90;;;23.40;99.90;;;;;;5050661;28;20017;-76
2023/09/30 10:35:14;;;;;;;1999.90;999.90;;;23.30;99.90;;;;;;5044337;28;20033;-78
2023/09/30 10:37:39;;;;;;;1999.90;999.90;;;23.00;99.90;;;;;;5054117;28;20025;-78
2023/09/30 10:40:07;;;;;;;1999.90;999.90;;;23.20;99.90;;;;;;5055932;28;20034;-78
2023/09/30 10:42:52;;;;;;;1999.90;999.90;;;23.10;99.90;;;;;;5054429;28;20022;-78
2023/09/30 10:45:37;;;;;;;1999.90;999.90;;;23.00;99.90;;;;;;5055452;28;20047;-77
2023/09/30 10:48:25;;;;;;;1999.90;999.90;;;23.20;99.90;;;;;;5054156;28;20017;-78
2023/09/30 10:50:53;;;;;;;1999.90;999.90;;;23.50;99.90;;;;;;5055362;28;20029;-76
2023/09/30 10:53:19;;;;;;;1999.90;999.90;;;23.40;99.90;;;;;;5055293;28;20021;-78
2023/09/30 10:55:45;;;;;;;1999.90;999.90;;;23.40;99.90;;;;;;5055441;28;20029;-78
2023/09/30 10:58:13;;;;;;;1999.90;999.90;;;23.30;99.90;;;;;;5055192;28;20108;-76
2023/09/30 11:00:38;;;;;;;1999.90;999.90;;;23.50;99.90;;;;;;5055162;28;20033;-78
2023/09/30 11:03:05;;;;;;;1999.90;999.90;;;23.50;99.90;;;;;;5055091;28;20052;-78
2023/09/30 11:05:34;;;;;;;1999.90;999.90;;;23.70;99.90;;;;;;5051182;28;20480;-78
2023/09/30 11:08:03;;;;;;;1999.90;999.90;;;23.80;99.90;;;;;;5049119;28;20147;-78
2023/09/30 11:10:29;;;;;;;1999.90;999.90;;;23.70;99.90;;;;;;5035456;28;20022;-76
2023/09/30 11:12:58;;;;;;;1999.90;999.90;;;23.80;99.90;;;;;;5054510;28;20386;-78
2023/09/30 11:15:24;;;;;;;1999.90;999.90;;;23.90;99.90;;;;;;5053614;28;20029;-76
2023/09/30 11:17:52;;;;;;;1999.90;999.90;;;23.60;99.90;;;;;;5055001;28;20438;-78
2023/09/30 11:20:18;;;;;;;1999.90;999.90;;;23.60;99.90;;;;;;5054968;28;20033;-78
2023/09/30 11:22:45;;;;;;;1999.90;999.90;;;23.90;99.90;;;;;;5054790;28;20107;-78
2023/09/30 11:25:17;;;;;;;1999.90;999.90;;;24.10;99.90;;;;;;5054766;28;20099;-76
2023/09/30 11:27:43;;;;;;;1999.90;999.90;;;24.30;99.90;;;;;;5054734;28;20021;-78
2023/09/30 11:30:09;;;;;;;1999.90;999.90;;;24.20;99.90;;;;;;5054495;28;20546;-78
2023/09/30 11:32:35;;;;;;;1999.90;999.90;;;24.20;99.90;;;;;;5054725;28;20086;-78
2023/09/30 11:35:01;;;;;;;1999.90;999.90;;;24.20;99.90;;;;;;5054545;28;20021;-76
2023/09/30 11:37:33;;;;;;;1999.90;999.90;;;24.10;99.90;;;;;;5054994;28;20099;-76
2023/09/30 11:40:14;;;;;;;1999.90;999.90;;;24.20;99.90;;;;;;5054500;28;20025;-78
2023/09/30 11:42:40;;;;;;;1999.90;999.90;;;24.40;99.90;;;;;;5053183;28;20033;-78
2023/09/30 11:45:27;;;;;;;1999.90;999.90;;;24.40;99.90;;;;;;5054320;28;20017;-78
2023/09/30 11:47:53;;;;;;;1999.90;999.90;;;24.50;99.90;;;;;;5053703;28;20070;-78
2023/09/30 11:50:18;;;;;;;1999.90;999.90;;;24.50;99.90;;;;;;5052853;28;20055;-76
2023/09/30 11:52:46;;;;;;;1999.90;999.90;;;24.40;99.90;;;;;;5054158;28;20049;-78
2023/09/30 11:55:12;;;;;;;1999.90;999.90;;;24.50;99.90;;;;;;5054586;28;20380;-78
2023/09/30 11:57:38;;;;;;;1999.90;999.90;;;24.80;99.90;;;;;;5054106;28;20025;-78
2023/09/30 12:00:13;;;;;;;1999.90;999.90;;;24.90;99.90;;;;;;5054201;28;20053;-78